sensor_id;sensor_type;location;lat;lon;timestamp;P1;durP1;ratioP1;P2;durP2;ratioP2
19341;SDS011;9807;48.258;12.690;2022-10-26T00:01:06;2.60;;;2.07;;
19341;SDS011;9807;48.258;12.690;2022-10-26T00:03:34;2.20;;;1.73;;
19341;SDS011;9807;48.258;12.690;2022-10-26T00:06:04;3.30;;;2.50;;
19341;SDS011;9807;48.258;12.690;2022-10-26T00:08:31;2.40;;;2.17;;
19341;SDS011;9807;48.258;12.690;2022-10-26T00:10:57;2.43;;;2.20;;
19341;SDS011;9807;48.258;12.690;2022-10-26T00:13:23;2.43;;;2.00;;
19341;SDS011;9807;48.258;12.690;2022-10-26T00:15:49;2.13;;;1.93;;
19341;SDS011;9807;48.258;12.690;2022-10-26T00:18:15;2.90;;;2.10;;
19341;SDS011;9807;48.258;12.690;2022-10-26T00:20:40;3.90;;;2.27;;
19341;SDS011;9807;48.258;12.690;2022-10-26T00:23:06;2.30;;;2.10;;
19341;SDS011;9807;48.258;12.690;2022-10-26T00:25:32;2.17;;;1.97;;
19341;SDS011;9807;48.258;12.690;2022-10-26T00:27:58;2.60;;;2.37;;
19341;SDS011;9807;48.258;12.690;2022-10-26T00:30:24;2.00;;;1.80;;
19341;SDS011;9807;48.258;12.690;2022-10-26T00:32:50;3.70;;;2.07;;
19341;SDS011;9807;48.258;12.690;2022-10-26T00:35:16;3.00;;;2.13;;
19341;SDS011;9807;48.258;12.690;2022-10-26T00:37:48;2.03;;;1.83;;
19341;SDS011;9807;48.258;12.690;2022-10-26T00:40:17;2.37;;;2.00;;
19341;SDS011;9807;48.258;12.690;2022-10-26T00:42:43;3.03;;;2.10;;
19341;SDS011;9807;48.258;12.690;2022-10-26T00:45:22;2.40;;;2.20;;
19341;SDS011;9807;48.258;12.690;2022-10-26T00:47:51;4.47;;;2.30;;
19341;SDS011;9807;48.258;12.690;2022-10-26T00:50:40;3.83;;;2.17;;
19341;SDS011;9807;48.258;12.690;2022-10-26T00:53:08;1.87;;;1.77;;
19341;SDS011;9807;48.258;12.690;2022-10-26T00:55:43;3.50;;;2.80;;
19341;SDS011;9807;48.258;12.690;2022-10-26T00:58:11;5.00;;;2.57;;
19341;SDS011;9807;48.258;12.690;2022-10-26T01:00:38;1.97;;;1.80;;
19341;SDS011;9807;48.258;12.690;2022-10-26T01:03:06;3.53;;;2.30;;
19341;SDS011;9807;48.258;12.690;2022-10-26T01:05:33;2.23;;;2.03;;
19341;SDS011;9807;48.258;12.690;2022-10-26T01:08:01;2.83;;;2.50;;
19341;SDS011;9807;48.258;12.690;2022-10-26T01:10:28;2.50;;;2.30;;
19341;SDS011;9807;48.258;12.690;2022-10-26T01:12:54;2.93;;;2.53;;
19341;SDS011;9807;48.258;12.690;2022-10-26T01:15:23;2.30;;;2.10;;
19341;SDS011;9807;48.258;12.690;2022-10-26T01:17:59;5.80;;;2.90;;
19341;SDS011;9807;48.258;12.690;2022-10-26T01:23:28;2.40;;;2.03;;
19341;SDS011;9807;48.258;12.690;2022-10-26T01:32:24;2.60;;;2.23;;
19341;SDS011;9807;48.258;12.690;2022-10-26T01:34:59;3.27;;;2.70;;
19341;SDS011;9807;48.258;12.690;2022-10-26T01:37:38;6.07;;;3.60;;
19341;SDS011;9807;48.258;12.690;2022-10-26T01:40:16;5.97;;;3.90;;
19341;SDS011;9807;48.258;12.690;2022-10-26T01:42:53;6.43;;;2.63;;
19341;SDS011;9807;48.258;12.690;2022-10-26T01:45:21;2.17;;;1.97;;
19341;SDS011;9807;48.258;12.690;2022-10-26T01:47:49;3.17;;;2.10;;
19341;SDS011;9807;48.258;12.690;2022-10-26T01:50:16;5.17;;;2.40;;
19341;SDS011;9807;48.258;12.690;2022-10-26T01:52:43;3.23;;;2.60;;
19341;SDS011;9807;48.258;12.690;2022-10-26T01:58:14;2.50;;;2.10;;
19341;SDS011;9807;48.258;12.690;2022-10-26T02:03:39;4.03;;;2.60;;
19341;SDS011;9807;48.258;12.690;2022-10-26T02:06:30;4.67;;;2.43;;
19341;SDS011;9807;48.258;12.690;2022-10-26T02:12:12;2.93;;;2.60;;
19341;SDS011;9807;48.258;12.690;2022-10-26T02:14:49;4.33;;;2.57;;
19341;SDS011;9807;48.258;12.690;2022-10-26T02:20:08;9.53;;;4.20;;
19341;SDS011;9807;48.258;12.690;2022-10-26T02:22:49;10.83;;;3.70;;
19341;SDS011;9807;48.258;12.690;2022-10-26T02:25:18;3.27;;;2.80;;
19341;SDS011;9807;48.258;12.690;2022-10-26T02:27:48;3.00;;;2.53;;
19341;SDS011;9807;48.258;12.690;2022-10-26T02:30:18;6.37;;;2.60;;
19341;SDS011;9807;48.258;12.690;2022-10-26T02:32:46;5.00;;;2.70;;
19341;SDS011;9807;48.258;12.690;2022-10-26T02:35:19;2.63;;;2.40;;
19341;SDS011;9807;48.258;12.690;2022-10-26T02:37:56;3.83;;;2.20;;
19341;SDS011;9807;48.258;12.690;2022-10-26T02:40:25;4.43;;;2.50;;
19341;SDS011;9807;48.258;12.690;2022-10-26T02:42:53;2.73;;;2.23;;
19341;SDS011;9807;48.258;12.690;2022-10-26T02:45:22;3.80;;;2.47;;
19341;SDS011;9807;48.258;12.690;2022-10-26T02:47:52;3.73;;;3.33;;
19341;SDS011;9807;48.258;12.690;2022-10-26T02:50:19;4.40;;;3.20;;
19341;SDS011;9807;48.258;12.690;2022-10-26T02:52:54;3.23;;;2.43;;
19341;SDS011;9807;48.258;12.690;2022-10-26T02:55:24;9.63;;;4.43;;
19341;SDS011;9807;48.258;12.690;2022-10-26T02:57:54;5.20;;;4.57;;
19341;SDS011;9807;48.258;12.690;2022-10-26T03:00:24;6.60;;;4.90;;
19341;SDS011;9807;48.258;12.690;2022-10-26T03:02:51;5.97;;;3.47;;
19341;SDS011;9807;48.258;12.690;2022-10-26T03:05:19;3.13;;;2.40;;
19341;SDS011;9807;48.258;12.690;2022-10-26T03:07:51;2.70;;;2.20;;
19341;SDS011;9807;48.258;12.690;2022-10-26T03:10:18;4.33;;;3.30;;
19341;SDS011;9807;48.258;12.690;2022-10-26T03:12:44;3.27;;;2.30;;
19341;SDS011;9807;48.258;12.690;2022-10-26T03:15:10;8.33;;;4.03;;
19341;SDS011;9807;48.258;12.690;2022-10-26T03:17:35;3.37;;;2.83;;
19341;SDS011;9807;48.258;12.690;2022-10-26T03:20:01;3.13;;;2.60;;
19341;SDS011;9807;48.258;12.690;2022-10-26T03:22:30;3.53;;;3.17;;
19341;SDS011;9807;48.258;12.690;2022-10-26T03:24:56;4.23;;;2.90;;
19341;SDS011;9807;48.258;12.690;2022-10-26T03:27:21;5.57;;;3.00;;
19341;SDS011;9807;48.258;12.690;2022-10-26T03:29:51;6.93;;;3.40;;
19341;SDS011;9807;48.258;12.690;2022-10-26T03:32:17;3.83;;;3.03;;
19341;SDS011;9807;48.258;12.690;2022-10-26T03:34:42;5.70;;;3.70;;
19341;SDS011;9807;48.258;12.690;2022-10-26T03:37:08;3.73;;;3.10;;
19341;SDS011;9807;48.258;12.690;2022-10-26T03:39:34;4.70;;;3.80;;
19341;SDS011;9807;48.258;12.690;2022-10-26T03:42:00;5.37;;;4.27;;
19341;SDS011;9807;48.258;12.690;2022-10-26T03:44:25;5.73;;;3.20;;
19341;SDS011;9807;48.258;12.690;2022-10-26T03:46:51;5.33;;;3.60;;
19341;SDS011;9807;48.258;12.690;2022-10-26T03:49:17;4.07;;;3.47;;
19341;SDS011;9807;48.258;12.690;2022-10-26T03:51:42;4.97;;;4.20;;
19341;SDS011;9807;48.258;12.690;2022-10-26T03:54:08;6.67;;;4.03;;
19341;SDS011;9807;48.258;12.690;2022-10-26T03:56:34;4.40;;;3.80;;
19341;SDS011;9807;48.258;12.690;2022-10-26T03:58:59;5.17;;;4.03;;
19341;SDS011;9807;48.258;12.690;2022-10-26T04:01:25;8.10;;;4.03;;
19341;SDS011;9807;48.258;12.690;2022-10-26T04:03:51;3.27;;;2.90;;
19341;SDS011;9807;48.258;12.690;2022-10-26T04:06:16;6.10;;;4.67;;
19341;SDS011;9807;48.258;12.690;2022-10-26T04:08:42;8.33;;;5.77;;
19341;SDS011;9807;48.258;12.690;2022-10-26T04:11:08;10.07;;;7.30;;
19341;SDS011;9807;48.258;12.690;2022-10-26T04:13:33;6.10;;;4.40;;
19341;SDS011;9807;48.258;12.690;2022-10-26T04:15:59;4.10;;;3.33;;
19341;SDS011;9807;48.258;12.690;2022-10-26T04:18:25;3.83;;;2.80;;
19341;SDS011;9807;48.258;12.690;2022-10-26T04:20:51;5.10;;;3.70;;
19341;SDS011;9807;48.258;12.690;2022-10-26T04:23:17;3.37;;;3.00;;
19341;SDS011;9807;48.258;12.690;2022-10-26T04:25:44;5.67;;;3.93;;
19341;SDS011;9807;48.258;12.690;2022-10-26T04:28:10;3.83;;;3.33;;
19341;SDS011;9807;48.258;12.690;2022-10-26T04:30:40;9.60;;;6.57;;
19341;SDS011;9807;48.258;12.690;2022-10-26T04:33:06;7.37;;;5.57;;
19341;SDS011;9807;48.258;12.690;2022-10-26T04:35:38;5.63;;;3.67;;
19341;SDS011;9807;48.258;12.690;2022-10-26T04:38:05;5.10;;;4.10;;
19341;SDS011;9807;48.258;12.690;2022-10-26T04:40:31;5.63;;;3.87;;
19341;SDS011;9807;48.258;12.690;2022-10-26T04:42:58;5.93;;;3.90;;
19341;SDS011;9807;48.258;12.690;2022-10-26T04:45:23;9.13;;;5.63;;
19341;SDS011;9807;48.258;12.690;2022-10-26T04:48:05;7.20;;;5.30;;
19341;SDS011;9807;48.258;12.690;2022-10-26T04:50:34;5.47;;;3.67;;
19341;SDS011;9807;48.258;12.690;2022-10-26T04:52:59;4.07;;;3.57;;
19341;SDS011;9807;48.258;12.690;2022-10-26T04:55:25;7.60;;;4.30;;
19341;SDS011;9807;48.258;12.690;2022-10-26T04:57:51;3.83;;;3.17;;
19341;SDS011;9807;48.258;12.690;2022-10-26T05:00:17;5.67;;;4.53;;
19341;SDS011;9807;48.258;12.690;2022-10-26T05:02:49;3.73;;;3.33;;
19341;SDS011;9807;48.258;12.690;2022-10-26T05:05:14;4.17;;;3.60;;
19341;SDS011;9807;48.258;12.690;2022-10-26T05:07:40;5.93;;;4.83;;
19341;SDS011;9807;48.258;12.690;2022-10-26T05:10:06;6.23;;;4.80;;
19341;SDS011;9807;48.258;12.690;2022-10-26T05:12:32;3.63;;;3.20;;
19341;SDS011;9807;48.258;12.690;2022-10-26T05:15:01;7.13;;;4.20;;
19341;SDS011;9807;48.258;12.690;2022-10-26T05:17:26;7.17;;;3.63;;
19341;SDS011;9807;48.258;12.690;2022-10-26T05:19:52;3.87;;;3.23;;
19341;SDS011;9807;48.258;12.690;2022-10-26T05:22:22;4.73;;;3.67;;
19341;SDS011;9807;48.258;12.690;2022-10-26T05:24:51;5.47;;;3.70;;
19341;SDS011;9807;48.258;12.690;2022-10-26T05:27:17;8.00;;;4.87;;
19341;SDS011;9807;48.258;12.690;2022-10-26T05:29:43;7.17;;;5.37;;
19341;SDS011;9807;48.258;12.690;2022-10-26T05:32:09;7.10;;;4.80;;
19341;SDS011;9807;48.258;12.690;2022-10-26T05:34:34;7.83;;;5.77;;
19341;SDS011;9807;48.258;12.690;2022-10-26T05:37:00;6.40;;;4.50;;
19341;SDS011;9807;48.258;12.690;2022-10-26T05:39:26;7.43;;;5.60;;
19341;SDS011;9807;48.258;12.690;2022-10-26T05:41:54;4.30;;;3.90;;
19341;SDS011;9807;48.258;12.690;2022-10-26T05:44:20;5.53;;;4.10;;
19341;SDS011;9807;48.258;12.690;2022-10-26T05:46:49;4.80;;;4.07;;
19341;SDS011;9807;48.258;12.690;2022-10-26T05:49:14;6.23;;;4.90;;
19341;SDS011;9807;48.258;12.690;2022-10-26T05:51:40;8.47;;;5.30;;
19341;SDS011;9807;48.258;12.690;2022-10-26T05:54:05;6.60;;;4.80;;
19341;SDS011;9807;48.258;12.690;2022-10-26T05:56:38;5.53;;;4.17;;
19341;SDS011;9807;48.258;12.690;2022-10-26T05:59:09;7.47;;;4.27;;
19341;SDS011;9807;48.258;12.690;2022-10-26T06:04:43;10.53;;;7.00;;
19341;SDS011;9807;48.258;12.690;2022-10-26T06:07:16;7.87;;;5.60;;
19341;SDS011;9807;48.258;12.690;2022-10-26T06:09:49;11.07;;;6.40;;
19341;SDS011;9807;48.258;12.690;2022-10-26T06:12:15;10.87;;;7.43;;
19341;SDS011;9807;48.258;12.690;2022-10-26T06:14:41;13.70;;;9.30;;
19341;SDS011;9807;48.258;12.690;2022-10-26T06:30:50;18.83;;;10.07;;
19341;SDS011;9807;48.258;12.690;2022-10-26T06:33:16;17.67;;;10.20;;
19341;SDS011;9807;48.258;12.690;2022-10-26T06:38:48;17.27;;;9.87;;
19341;SDS011;9807;48.258;12.690;2022-10-26T06:41:17;17.00;;;9.13;;
19341;SDS011;9807;48.258;12.690;2022-10-26T06:43:44;9.33;;;7.30;;
19341;SDS011;9807;48.258;12.690;2022-10-26T06:52:01;14.03;;;9.63;;
19341;SDS011;9807;48.258;12.690;2022-10-26T06:57:23;7.23;;;6.23;;
19341;SDS011;9807;48.258;12.690;2022-10-26T06:59:52;5.70;;;4.73;;
19341;SDS011;9807;48.258;12.690;2022-10-26T07:02:21;4.50;;;3.70;;
19341;SDS011;9807;48.258;12.690;2022-10-26T07:04:53;4.10;;;3.30;;
19341;SDS011;9807;48.258;12.690;2022-10-26T07:07:20;6.10;;;3.60;;
19341;SDS011;9807;48.258;12.690;2022-10-26T07:09:48;4.40;;;3.50;;
19341;SDS011;9807;48.258;12.690;2022-10-26T07:12:13;6.77;;;5.00;;
19341;SDS011;9807;48.258;12.690;2022-10-26T07:14:39;12.03;;;7.40;;
19341;SDS011;9807;48.258;12.690;2022-10-26T07:17:05;6.17;;;4.53;;
19341;SDS011;9807;48.258;12.690;2022-10-26T07:19:31;6.13;;;3.83;;
19341;SDS011;9807;48.258;12.690;2022-10-26T07:21:56;6.00;;;4.40;;
19341;SDS011;9807;48.258;12.690;2022-10-26T07:24:28;12.67;;;6.57;;
19341;SDS011;9807;48.258;12.690;2022-10-26T07:26:55;6.40;;;3.80;;
19341;SDS011;9807;48.258;12.690;2022-10-26T07:29:24;8.77;;;4.67;;
19341;SDS011;9807;48.258;12.690;2022-10-26T07:31:51;7.63;;;3.87;;
19341;SDS011;9807;48.258;12.690;2022-10-26T07:34:20;7.27;;;4.63;;
19341;SDS011;9807;48.258;12.690;2022-10-26T07:36:48;12.90;;;6.23;;
19341;SDS011;9807;48.258;12.690;2022-10-26T07:39:15;5.87;;;5.23;;
19341;SDS011;9807;48.258;12.690;2022-10-26T07:41:41;7.53;;;5.47;;
19341;SDS011;9807;48.258;12.690;2022-10-26T07:44:07;3.73;;;3.30;;
19341;SDS011;9807;48.258;12.690;2022-10-26T07:46:32;7.13;;;4.67;;
19341;SDS011;9807;48.258;12.690;2022-10-26T07:48:58;9.77;;;6.67;;
19341;SDS011;9807;48.258;12.690;2022-10-26T07:51:26;4.97;;;3.40;;
19341;SDS011;9807;48.258;12.690;2022-10-26T07:53:52;6.47;;;4.13;;
19341;SDS011;9807;48.258;12.690;2022-10-26T07:56:17;5.87;;;3.97;;
19341;SDS011;9807;48.258;12.690;2022-10-26T07:58:43;8.67;;;5.90;;
19341;SDS011;9807;48.258;12.690;2022-10-26T08:01:09;10.00;;;6.93;;
19341;SDS011;9807;48.258;12.690;2022-10-26T08:03:36;9.50;;;7.23;;
19341;SDS011;9807;48.258;12.690;2022-10-26T08:06:06;6.30;;;4.50;;
19341;SDS011;9807;48.258;12.690;2022-10-26T08:08:33;5.10;;;4.60;;
19341;SDS011;9807;48.258;12.690;2022-10-26T08:10:59;4.63;;;3.50;;
19341;SDS011;9807;48.258;12.690;2022-10-26T08:13:25;8.43;;;5.13;;
19341;SDS011;9807;48.258;12.690;2022-10-26T08:15:57;7.83;;;5.17;;
19341;SDS011;9807;48.258;12.690;2022-10-26T08:18:24;6.97;;;5.43;;
19341;SDS011;9807;48.258;12.690;2022-10-26T08:20:50;13.73;;;8.13;;
19341;SDS011;9807;48.258;12.690;2022-10-26T08:23:16;10.30;;;5.80;;
19341;SDS011;9807;48.258;12.690;2022-10-26T08:25:48;6.03;;;4.23;;
19341;SDS011;9807;48.258;12.690;2022-10-26T08:28:14;8.03;;;5.13;;
19341;SDS011;9807;48.258;12.690;2022-10-26T08:30:39;4.67;;;3.70;;
19341;SDS011;9807;48.258;12.690;2022-10-26T08:33:06;8.87;;;5.23;;
19341;SDS011;9807;48.258;12.690;2022-10-26T08:35:32;9.60;;;6.13;;
19341;SDS011;9807;48.258;12.690;2022-10-26T08:37:58;12.97;;;8.70;;
19341;SDS011;9807;48.258;12.690;2022-10-26T08:40:26;12.67;;;6.93;;
19341;SDS011;9807;48.258;12.690;2022-10-26T08:43:20;6.50;;;5.07;;
19341;SDS011;9807;48.258;12.690;2022-10-26T08:45:52;5.67;;;3.87;;
19341;SDS011;9807;48.258;12.690;2022-10-26T08:48:20;6.47;;;5.10;;
19341;SDS011;9807;48.258;12.690;2022-10-26T08:50:51;4.93;;;4.03;;
19341;SDS011;9807;48.258;12.690;2022-10-26T08:53:25;11.10;;;6.17;;
19341;SDS011;9807;48.258;12.690;2022-10-26T08:56:07;7.23;;;4.83;;
19341;SDS011;9807;48.258;12.690;2022-10-26T08:58:40;9.73;;;6.73;;
19341;SDS011;9807;48.258;12.690;2022-10-26T09:01:24;10.17;;;6.37;;
19341;SDS011;9807;48.258;12.690;2022-10-26T09:03:50;9.03;;;5.50;;
19341;SDS011;9807;48.258;12.690;2022-10-26T09:06:29;10.57;;;5.10;;
19341;SDS011;9807;48.258;12.690;2022-10-26T09:09:23;8.80;;;6.00;;
19341;SDS011;9807;48.258;12.690;2022-10-26T09:26:09;10.43;;;4.67;;
19341;SDS011;9807;48.258;12.690;2022-10-26T09:28:44;5.37;;;3.50;;
19341;SDS011;9807;48.258;12.690;2022-10-26T09:31:13;11.03;;;6.57;;
19341;SDS011;9807;48.258;12.690;2022-10-26T09:33:41;10.03;;;4.93;;
19341;SDS011;9807;48.258;12.690;2022-10-26T09:36:11;5.00;;;3.50;;
19341;SDS011;9807;48.258;12.690;2022-10-26T09:38:50;7.97;;;3.50;;
19341;SDS011;9807;48.258;12.690;2022-10-26T09:41:30;8.13;;;4.23;;
19341;SDS011;9807;48.258;12.690;2022-10-26T09:50:11;5.50;;;3.63;;
19341;SDS011;9807;48.258;12.690;2022-10-26T09:52:42;8.20;;;4.40;;
19341;SDS011;9807;48.258;12.690;2022-10-26T09:55:11;8.20;;;4.07;;
19341;SDS011;9807;48.258;12.690;2022-10-26T09:57:41;8.00;;;3.63;;
19341;SDS011;9807;48.258;12.690;2022-10-26T10:00:12;5.63;;;3.47;;
19341;SDS011;9807;48.258;12.690;2022-10-26T10:02:42;7.27;;;4.27;;
19341;SDS011;9807;48.258;12.690;2022-10-26T10:08:09;5.60;;;3.03;;
19341;SDS011;9807;48.258;12.690;2022-10-26T10:13:36;8.93;;;4.10;;
19341;SDS011;9807;48.258;12.690;2022-10-26T10:16:22;7.57;;;3.90;;
19341;SDS011;9807;48.258;12.690;2022-10-26T10:18:56;7.67;;;3.27;;
19341;SDS011;9807;48.258;12.690;2022-10-26T10:21:33;7.73;;;3.30;;
19341;SDS011;9807;48.258;12.690;2022-10-26T10:24:01;8.23;;;3.10;;
19341;SDS011;9807;48.258;12.690;2022-10-26T10:26:27;8.73;;;5.37;;
19341;SDS011;9807;48.258;12.690;2022-10-26T10:28:59;4.53;;;3.30;;
19341;SDS011;9807;48.258;12.690;2022-10-26T10:31:34;4.20;;;3.03;;
19341;SDS011;9807;48.258;12.690;2022-10-26T10:34:01;5.47;;;2.90;;
19341;SDS011;9807;48.258;12.690;2022-10-26T10:36:39;5.73;;;3.10;;
19341;SDS011;9807;48.258;12.690;2022-10-26T10:39:05;7.73;;;3.73;;
19341;SDS011;9807;48.258;12.690;2022-10-26T10:42:28;8.83;;;3.40;;
19341;SDS011;9807;48.258;12.690;2022-10-26T10:45:03;6.90;;;3.30;;
19341;SDS011;9807;48.258;12.690;2022-10-26T10:47:32;4.87;;;2.83;;
19341;SDS011;9807;48.258;12.690;2022-10-26T10:50:03;5.70;;;3.17;;
19341;SDS011;9807;48.258;12.690;2022-10-26T10:52:41;9.67;;;3.30;;
19341;SDS011;9807;48.258;12.690;2022-10-26T11:00:13;21.37;;;4.40;;
19341;SDS011;9807;48.258;12.690;2022-10-26T11:05:26;4.47;;;2.87;;
19341;SDS011;9807;48.258;12.690;2022-10-26T11:08:16;7.37;;;3.20;;
19341;SDS011;9807;48.258;12.690;2022-10-26T11:11:00;4.00;;;2.60;;
19341;SDS011;9807;48.258;12.690;2022-10-26T11:13:49;3.63;;;2.40;;
19341;SDS011;9807;48.258;12.690;2022-10-26T11:16:22;4.47;;;2.80;;
19341;SDS011;9807;48.258;12.690;2022-10-26T11:19:15;4.70;;;2.57;;
19341;SDS011;9807;48.258;12.690;2022-10-26T11:21:53;4.40;;;2.77;;
19341;SDS011;9807;48.258;12.690;2022-10-26T11:26:57;4.93;;;2.60;;
19341;SDS011;9807;48.258;12.690;2022-10-26T11:29:42;4.43;;;2.50;;
19341;SDS011;9807;48.258;12.690;2022-10-26T11:32:22;4.83;;;2.50;;
19341;SDS011;9807;48.258;12.690;2022-10-26T11:35:22;3.57;;;2.47;;
19341;SDS011;9807;48.258;12.690;2022-10-26T11:40:44;2.63;;;2.23;;
19341;SDS011;9807;48.258;12.690;2022-10-26T11:51:11;2.83;;;2.10;;
19341;SDS011;9807;48.258;12.690;2022-10-26T11:53:46;3.03;;;2.23;;
19341;SDS011;9807;48.258;12.690;2022-10-26T11:56:29;3.23;;;2.40;;
19341;SDS011;9807;48.258;12.690;2022-10-26T11:58:59;4.33;;;2.40;;
19341;SDS011;9807;48.258;12.690;2022-10-26T12:01:26;5.57;;;2.40;;
19341;SDS011;9807;48.258;12.690;2022-10-26T12:03:53;4.80;;;2.33;;
19341;SDS011;9807;48.258;12.690;2022-10-26T12:06:23;4.07;;;2.60;;
19341;SDS011;9807;48.258;12.690;2022-10-26T12:08:56;5.23;;;2.47;;
19341;SDS011;9807;48.258;12.690;2022-10-26T12:14:31;3.90;;;2.70;;
19341;SDS011;9807;48.258;12.690;2022-10-26T12:17:16;2.93;;;2.30;;
19341;SDS011;9807;48.258;12.690;2022-10-26T12:19:50;3.60;;;2.50;;
19341;SDS011;9807;48.258;12.690;2022-10-26T12:22:32;3.37;;;2.80;;
19341;SDS011;9807;48.258;12.690;2022-10-26T12:25:06;3.37;;;2.23;;
19341;SDS011;9807;48.258;12.690;2022-10-26T12:32:49;4.60;;;2.40;;
19341;SDS011;9807;48.258;12.690;2022-10-26T12:35:30;7.63;;;2.33;;
19341;SDS011;9807;48.258;12.690;2022-10-26T12:40:48;14.53;;;3.20;;
19341;SDS011;9807;48.258;12.690;2022-10-26T12:57:06;3.57;;;2.03;;
19341;SDS011;9807;48.258;12.690;2022-10-26T12:59:48;3.67;;;2.20;;
19341;SDS011;9807;48.258;12.690;2022-10-26T13:07:38;5.93;;;2.00;;
19341;SDS011;9807;48.258;12.690;2022-10-26T13:12:50;2.10;;;1.60;;
19341;SDS011;9807;48.258;12.690;2022-10-26T13:15:26;3.93;;;2.40;;
19341;SDS011;9807;48.258;12.690;2022-10-26T13:18:13;4.50;;;1.93;;
19341;SDS011;9807;48.258;12.690;2022-10-26T13:20:52;4.47;;;2.00;;
19341;SDS011;9807;48.258;12.690;2022-10-26T13:23:29;5.83;;;2.67;;
19341;SDS011;9807;48.258;12.690;2022-10-26T13:26:15;5.37;;;2.20;;
19341;SDS011;9807;48.258;12.690;2022-10-26T13:28:44;5.17;;;2.40;;
19341;SDS011;9807;48.258;12.690;2022-10-26T13:31:19;3.50;;;2.43;;
19341;SDS011;9807;48.258;12.690;2022-10-26T13:34:13;4.03;;;2.07;;
19341;SDS011;9807;48.258;12.690;2022-10-26T13:36:58;2.50;;;1.90;;
19341;SDS011;9807;48.258;12.690;2022-10-26T13:39:59;7.33;;;2.23;;
19341;SDS011;9807;48.258;12.690;2022-10-26T13:42:32;3.27;;;2.07;;
19341;SDS011;9807;48.258;12.690;2022-10-26T13:45:10;6.83;;;2.40;;
19341;SDS011;9807;48.258;12.690;2022-10-26T13:50:37;2.00;;;1.80;;
19341;SDS011;9807;48.258;12.690;2022-10-26T13:53:18;2.80;;;2.10;;
19341;SDS011;9807;48.258;12.690;2022-10-26T13:55:58;4.33;;;2.00;;
19341;SDS011;9807;48.258;12.690;2022-10-26T13:58:48;2.37;;;1.77;;
19341;SDS011;9807;48.258;12.690;2022-10-26T14:01:35;4.53;;;2.30;;
19341;SDS011;9807;48.258;12.690;2022-10-26T14:04:16;3.00;;;2.10;;
19341;SDS011;9807;48.258;12.690;2022-10-26T14:06:50;3.30;;;2.37;;
19341;SDS011;9807;48.258;12.690;2022-10-26T14:09:17;5.30;;;2.30;;
19341;SDS011;9807;48.258;12.690;2022-10-26T14:11:54;3.97;;;2.40;;
19341;SDS011;9807;48.258;12.690;2022-10-26T14:14:25;6.17;;;2.63;;
19341;SDS011;9807;48.258;12.690;2022-10-26T14:16:52;7.17;;;2.50;;
19341;SDS011;9807;48.258;12.690;2022-10-26T14:19:24;4.47;;;1.90;;
19341;SDS011;9807;48.258;12.690;2022-10-26T14:21:52;5.47;;;2.50;;
19341;SDS011;9807;48.258;12.690;2022-10-26T14:24:23;4.00;;;1.90;;
19341;SDS011;9807;48.258;12.690;2022-10-26T14:26:52;2.87;;;2.10;;
19341;SDS011;9807;48.258;12.690;2022-10-26T14:29:22;2.57;;;2.23;;
19341;SDS011;9807;48.258;12.690;2022-10-26T14:31:49;5.13;;;2.57;;
19341;SDS011;9807;48.258;12.690;2022-10-26T14:34:16;3.70;;;1.93;;
19341;SDS011;9807;48.258;12.690;2022-10-26T14:36:47;3.20;;;2.27;;
19341;SDS011;9807;48.258;12.690;2022-10-26T14:39:25;2.33;;;2.03;;
19341;SDS011;9807;48.258;12.690;2022-10-26T14:41:55;3.03;;;2.30;;
19341;SDS011;9807;48.258;12.690;2022-10-26T14:44:23;4.77;;;2.43;;
19341;SDS011;9807;48.258;12.690;2022-10-26T14:46:49;7.80;;;4.30;;
19341;SDS011;9807;48.258;12.690;2022-10-26T14:49:26;5.60;;;3.53;;
19341;SDS011;9807;48.258;12.690;2022-10-26T14:51:59;9.50;;;2.90;;
19341;SDS011;9807;48.258;12.690;2022-10-26T14:54:29;4.00;;;1.90;;
19341;SDS011;9807;48.258;12.690;2022-10-26T14:57:00;3.23;;;2.17;;
19341;SDS011;9807;48.258;12.690;2022-10-26T14:59:32;5.87;;;2.00;;
19341;SDS011;9807;48.258;12.690;2022-10-26T15:02:00;3.40;;;2.10;;
19341;SDS011;9807;48.258;12.690;2022-10-26T15:04:39;6.73;;;2.63;;
19341;SDS011;9807;48.258;12.690;2022-10-26T15:12:18;3.30;;;2.23;;
19341;SDS011;9807;48.258;12.690;2022-10-26T15:14:44;7.10;;;3.17;;
19341;SDS011;9807;48.258;12.690;2022-10-26T15:17:29;2.90;;;2.17;;
19341;SDS011;9807;48.258;12.690;2022-10-26T15:20:05;7.80;;;2.90;;
19341;SDS011;9807;48.258;12.690;2022-10-26T15:22:32;4.93;;;2.00;;
19341;SDS011;9807;48.258;12.690;2022-10-26T15:24:59;4.07;;;2.27;;
19341;SDS011;9807;48.258;12.690;2022-10-26T15:27:27;2.43;;;2.20;;
19341;SDS011;9807;48.258;12.690;2022-10-26T15:32:49;2.60;;;1.90;;
19341;SDS011;9807;48.258;12.690;2022-10-26T15:37:41;2.47;;;1.80;;
19341;SDS011;9807;48.258;12.690;2022-10-26T15:40:08;2.33;;;2.10;;
19341;SDS011;9807;48.258;12.690;2022-10-26T15:42:34;3.20;;;1.93;;
19341;SDS011;9807;48.258;12.690;2022-10-26T15:45:05;3.47;;;2.10;;
19341;SDS011;9807;48.258;12.690;2022-10-26T15:47:38;4.47;;;2.40;;
19341;SDS011;9807;48.258;12.690;2022-10-26T15:50:04;5.10;;;1.90;;
19341;SDS011;9807;48.258;12.690;2022-10-26T15:52:30;3.17;;;2.20;;
19341;SDS011;9807;48.258;12.690;2022-10-26T15:54:55;2.43;;;1.83;;
19341;SDS011;9807;48.258;12.690;2022-10-26T15:57:21;4.60;;;1.90;;
19341;SDS011;9807;48.258;12.690;2022-10-26T15:59:49;4.33;;;2.23;;
19341;SDS011;9807;48.258;12.690;2022-10-26T16:02:17;3.50;;;2.10;;
19341;SDS011;9807;48.258;12.690;2022-10-26T16:04:43;3.80;;;2.10;;
19341;SDS011;9807;48.258;12.690;2022-10-26T16:07:12;2.43;;;1.97;;
19341;SDS011;9807;48.258;12.690;2022-10-26T16:09:39;4.33;;;2.83;;
19341;SDS011;9807;48.258;12.690;2022-10-26T16:12:10;6.27;;;3.10;;
19341;SDS011;9807;48.258;12.690;2022-10-26T16:14:37;4.07;;;2.40;;
19341;SDS011;9807;48.258;12.690;2022-10-26T16:17:03;3.20;;;1.90;;
19341;SDS011;9807;48.258;12.690;2022-10-26T16:19:30;3.67;;;2.30;;
19341;SDS011;9807;48.258;12.690;2022-10-26T16:21:56;2.37;;;2.10;;
19341;SDS011;9807;48.258;12.690;2022-10-26T16:24:22;3.03;;;2.20;;
19341;SDS011;9807;48.258;12.690;2022-10-26T16:26:48;4.50;;;2.57;;
19341;SDS011;9807;48.258;12.690;2022-10-26T16:29:14;2.93;;;2.47;;
19341;SDS011;9807;48.258;12.690;2022-10-26T16:31:40;3.40;;;2.37;;
19341;SDS011;9807;48.258;12.690;2022-10-26T16:34:05;4.03;;;2.70;;
19341;SDS011;9807;48.258;12.690;2022-10-26T16:36:31;2.93;;;2.40;;
19341;SDS011;9807;48.258;12.690;2022-10-26T16:38:58;2.00;;;1.80;;
19341;SDS011;9807;48.258;12.690;2022-10-26T16:41:24;4.53;;;2.03;;
19341;SDS011;9807;48.258;12.690;2022-10-26T16:43:49;2.57;;;1.80;;
19341;SDS011;9807;48.258;12.690;2022-10-26T16:46:16;3.33;;;2.60;;
19341;SDS011;9807;48.258;12.690;2022-10-26T16:48:44;2.07;;;1.87;;
19341;SDS011;9807;48.258;12.690;2022-10-26T16:51:15;4.90;;;2.23;;
19341;SDS011;9807;48.258;12.690;2022-10-26T16:53:42;3.70;;;2.73;;
19341;SDS011;9807;48.258;12.690;2022-10-26T16:56:11;2.70;;;2.00;;
19341;SDS011;9807;48.258;12.690;2022-10-26T16:58:38;10.03;;;3.43;;
19341;SDS011;9807;48.258;12.690;2022-10-26T17:01:05;5.30;;;3.40;;
19341;SDS011;9807;48.258;12.690;2022-10-26T17:03:31;3.57;;;2.33;;
19341;SDS011;9807;48.258;12.690;2022-10-26T17:05:58;2.43;;;2.10;;
19341;SDS011;9807;48.258;12.690;2022-10-26T17:08:25;3.13;;;2.13;;
19341;SDS011;9807;48.258;12.690;2022-10-26T17:10:52;2.83;;;1.97;;
19341;SDS011;9807;48.258;12.690;2022-10-26T17:13:25;2.83;;;2.20;;
19341;SDS011;9807;48.258;12.690;2022-10-26T17:15:51;6.80;;;3.40;;
19341;SDS011;9807;48.258;12.690;2022-10-26T17:18:17;5.03;;;2.97;;
19341;SDS011;9807;48.258;12.690;2022-10-26T17:20:49;3.00;;;2.47;;
19341;SDS011;9807;48.258;12.690;2022-10-26T17:23:15;3.07;;;2.30;;
19341;SDS011;9807;48.258;12.690;2022-10-26T17:25:41;3.40;;;2.30;;
19341;SDS011;9807;48.258;12.690;2022-10-26T17:28:07;2.50;;;2.20;;